sensor_id;sensor_type;location;lat;lon;timestamp;P1;durP1;ratioP1;P2;durP2;ratioP2
83634;SDS011;73596;49.482;11.238;2024-03-06T00:01:29;15.45;;;7.75;;
83634;SDS011;73596;49.482;11.238;2024-03-06T00:03:54;10.23;;;5.40;;
83634;SDS011;73596;49.482;11.238;2024-03-06T00:06:20;12.77;;;7.10;;
83634;SDS011;73596;49.482;11.238;2024-03-06T00:08:45;11.98;;;5.80;;
83634;SDS011;73596;49.482;11.238;2024-03-06T00:11:10;11.33;;;5.17;;
83634;SDS011;73596;49.482;11.238;2024-03-06T00:13:36;8.43;;;4.53;;
83634;SDS011;73596;49.482;11.238;2024-03-06T00:16:01;9.47;;;4.57;;
83634;SDS011;73596;49.482;11.238;2024-03-06T00:18:26;6.95;;;3.55;;
83634;SDS011;73596;49.482;11.238;2024-03-06T00:20:51;9.20;;;4.33;;
83634;SDS011;73596;49.482;11.238;2024-03-06T00:23:17;8.80;;;4.63;;
83634;SDS011;73596;49.482;11.238;2024-03-06T00:25:42;7.32;;;3.65;;
83634;SDS011;73596;49.482;11.238;2024-03-06T00:28:07;5.40;;;2.97;;
83634;SDS011;73596;49.482;11.238;2024-03-06T00:30:33;7.40;;;3.07;;
83634;SDS011;73596;49.482;11.238;2024-03-06T00:32:58;7.53;;;3.77;;
83634;SDS011;73596;49.482;11.238;2024-03-06T00:35:24;9.45;;;4.35;;
83634;SDS011;73596;49.482;11.238;2024-03-06T00:37:49;9.93;;;4.67;;
83634;SDS011;73596;49.482;11.238;2024-03-06T00:40:14;8.43;;;3.45;;
83634;SDS011;73596;49.482;11.238;2024-03-06T00:42:39;6.73;;;3.73;;
83634;SDS011;73596;49.482;11.238;2024-03-06T00:45:06;8.68;;;3.95;;
83634;SDS011;73596;49.482;11.238;2024-03-06T00:47:31;10.05;;;5.20;;
83634;SDS011;73596;49.482;11.238;2024-03-06T00:49:59;14.32;;;6.22;;
83634;SDS011;73596;49.482;11.238;2024-03-06T00:52:24;14.07;;;6.27;;
83634;SDS011;73596;49.482;11.238;2024-03-06T00:54:51;14.90;;;6.53;;
83634;SDS011;73596;49.482;11.238;2024-03-06T00:57:16;12.57;;;5.77;;
83634;SDS011;73596;49.482;11.238;2024-03-06T00:59:41;11.77;;;5.50;;
83634;SDS011;73596;49.482;11.238;2024-03-06T01:02:07;11.13;;;4.50;;
83634;SDS011;73596;49.482;11.238;2024-03-06T01:04:32;9.73;;;5.40;;
83634;SDS011;73596;49.482;11.238;2024-03-06T01:06:57;10.40;;;5.10;;
83634;SDS011;73596;49.482;11.238;2024-03-06T01:09:23;10.45;;;5.85;;
83634;SDS011;73596;49.482;11.238;2024-03-06T01:11:48;14.15;;;7.40;;
83634;SDS011;73596;49.482;11.238;2024-03-06T01:14:14;14.82;;;6.72;;
83634;SDS011;73596;49.482;11.238;2024-03-06T01:16:39;15.70;;;7.18;;
83634;SDS011;73596;49.482;11.238;2024-03-06T01:19:05;15.00;;;7.27;;
83634;SDS011;73596;49.482;11.238;2024-03-06T01:21:30;13.20;;;6.93;;
83634;SDS011;73596;49.482;11.238;2024-03-06T01:23:55;9.93;;;5.60;;
83634;SDS011;73596;49.482;11.238;2024-03-06T01:26:21;15.53;;;6.47;;
83634;SDS011;73596;49.482;11.238;2024-03-06T01:28:46;18.93;;;7.77;;
83634;SDS011;73596;49.482;11.238;2024-03-06T01:31:11;11.20;;;5.30;;
83634;SDS011;73596;49.482;11.238;2024-03-06T01:33:36;13.43;;;5.80;;
83634;SDS011;73596;49.482;11.238;2024-03-06T01:36:02;10.20;;;5.32;;
83634;SDS011;73596;49.482;11.238;2024-03-06T01:38:28;11.77;;;5.10;;
83634;SDS011;73596;49.482;11.238;2024-03-06T01:40:53;20.52;;;9.55;;
83634;SDS011;73596;49.482;11.238;2024-03-06T01:43:19;14.90;;;7.00;;
83634;SDS011;73596;49.482;11.238;2024-03-06T01:45:47;16.45;;;7.97;;
83634;SDS011;73596;49.482;11.238;2024-03-06T01:48:13;14.20;;;6.13;;
83634;SDS011;73596;49.482;11.238;2024-03-06T01:50:39;12.40;;;5.15;;
83634;SDS011;73596;49.482;11.238;2024-03-06T01:53:05;11.38;;;4.95;;
83634;SDS011;73596;49.482;11.238;2024-03-06T01:55:31;10.88;;;5.68;;
83634;SDS011;73596;49.482;11.238;2024-03-06T01:57:56;14.23;;;5.97;;
83634;SDS011;73596;49.482;11.238;2024-03-06T02:00:21;10.87;;;4.87;;
83634;SDS011;73596;49.482;11.238;2024-03-06T02:02:47;12.15;;;5.47;;
83634;SDS011;73596;49.482;11.238;2024-03-06T02:05:13;12.63;;;5.88;;
83634;SDS011;73596;49.482;11.238;2024-03-06T02:07:39;16.80;;;8.52;;
83634;SDS011;73596;49.482;11.238;2024-03-06T02:10:06;16.33;;;8.20;;
83634;SDS011;73596;49.482;11.238;2024-03-06T02:12:33;12.70;;;5.97;;
83634;SDS011;73596;49.482;11.238;2024-03-06T02:14:58;9.27;;;5.18;;
83634;SDS011;73596;49.482;11.238;2024-03-06T02:17:24;9.25;;;3.78;;
83634;SDS011;73596;49.482;11.238;2024-03-06T02:19:50;11.77;;;4.85;;
83634;SDS011;73596;49.482;11.238;2024-03-06T02:22:16;12.25;;;5.75;;
83634;SDS011;73596;49.482;11.238;2024-03-06T02:24:42;12.18;;;5.70;;
83634;SDS011;73596;49.482;11.238;2024-03-06T02:27:10;13.13;;;5.82;;
83634;SDS011;73596;49.482;11.238;2024-03-06T02:29:35;17.00;;;7.53;;
83634;SDS011;73596;49.482;11.238;2024-03-06T02:32:00;13.87;;;6.47;;
83634;SDS011;73596;49.482;11.238;2024-03-06T02:34:28;9.75;;;5.05;;
83634;SDS011;73596;49.482;11.238;2024-03-06T02:36:55;14.88;;;6.97;;
83634;SDS011;73596;49.482;11.238;2024-03-06T02:39:20;13.52;;;7.05;;
83634;SDS011;73596;49.482;11.238;2024-03-06T02:41:46;13.43;;;6.60;;
83634;SDS011;73596;49.482;11.238;2024-03-06T02:44:12;15.18;;;7.03;;
83634;SDS011;73596;49.482;11.238;2024-03-06T02:46:37;13.40;;;6.43;;
83634;SDS011;73596;49.482;11.238;2024-03-06T02:49:02;14.13;;;4.80;;
83634;SDS011;73596;49.482;11.238;2024-03-06T02:51:27;9.80;;;4.37;;
83634;SDS011;73596;49.482;11.238;2024-03-06T02:53:53;17.23;;;8.13;;
83634;SDS011;73596;49.482;11.238;2024-03-06T02:56:18;20.27;;;8.43;;
83634;SDS011;73596;49.482;11.238;2024-03-06T02:58:44;17.13;;;8.43;;
83634;SDS011;73596;49.482;11.238;2024-03-06T03:01:10;16.23;;;7.28;;
83634;SDS011;73596;49.482;11.238;2024-03-06T03:03:35;17.92;;;7.72;;
83634;SDS011;73596;49.482;11.238;2024-03-06T03:06:01;15.20;;;6.45;;
83634;SDS011;73596;49.482;11.238;2024-03-06T03:08:26;14.13;;;6.25;;
83634;SDS011;73596;49.482;11.238;2024-03-06T03:10:52;11.15;;;5.40;;
83634;SDS011;73596;49.482;11.238;2024-03-06T03:13:17;8.10;;;4.23;;
83634;SDS011;73596;49.482;11.238;2024-03-06T03:15:42;15.57;;;6.70;;
83634;SDS011;73596;49.482;11.238;2024-03-06T03:18:08;12.05;;;5.35;;
83634;SDS011;73596;49.482;11.238;2024-03-06T03:20:33;15.07;;;6.53;;
83634;SDS011;73596;49.482;11.238;2024-03-06T03:22:59;19.63;;;8.48;;
83634;SDS011;73596;49.482;11.238;2024-03-06T03:25:26;18.33;;;8.35;;
83634;SDS011;73596;49.482;11.238;2024-03-06T03:27:51;13.97;;;6.80;;
83634;SDS011;73596;49.482;11.238;2024-03-06T03:30:17;26.40;;;10.37;;
83634;SDS011;73596;49.482;11.238;2024-03-06T03:32:45;16.63;;;8.88;;
83634;SDS011;73596;49.482;11.238;2024-03-06T03:35:10;12.77;;;6.23;;
83634;SDS011;73596;49.482;11.238;2024-03-06T03:37:36;16.03;;;6.70;;
83634;SDS011;73596;49.482;11.238;2024-03-06T03:40:01;15.60;;;5.13;;
83634;SDS011;73596;49.482;11.238;2024-03-06T03:42:27;13.82;;;6.10;;
83634;SDS011;73596;49.482;11.238;2024-03-06T03:44:52;12.10;;;5.70;;
83634;SDS011;73596;49.482;11.238;2024-03-06T03:47:18;14.70;;;6.37;;
83634;SDS011;73596;49.482;11.238;2024-03-06T03:49:43;20.30;;;8.50;;
83634;SDS011;73596;49.482;11.238;2024-03-06T03:52:09;18.70;;;7.37;;
83634;SDS011;73596;49.482;11.238;2024-03-06T03:54:34;17.93;;;7.23;;
83634;SDS011;73596;49.482;11.238;2024-03-06T03:57:00;21.67;;;8.85;;
83634;SDS011;73596;49.482;11.238;2024-03-06T03:59:25;17.77;;;7.82;;
83634;SDS011;73596;49.482;11.238;2024-03-06T04:01:51;28.10;;;11.23;;
83634;SDS011;73596;49.482;11.238;2024-03-06T04:04:16;26.65;;;9.98;;
83634;SDS011;73596;49.482;11.238;2024-03-06T04:06:41;20.33;;;8.40;;
83634;SDS011;73596;49.482;11.238;2024-03-06T04:09:07;28.07;;;10.50;;
83634;SDS011;73596;49.482;11.238;2024-03-06T04:11:35;20.58;;;8.25;;
83634;SDS011;73596;49.482;11.238;2024-03-06T04:14:02;20.13;;;7.35;;
83634;SDS011;73596;49.482;11.238;2024-03-06T04:16:28;18.20;;;6.90;;
83634;SDS011;73596;49.482;11.238;2024-03-06T04:18:53;12.63;;;5.50;;
83634;SDS011;73596;49.482;11.238;2024-03-06T04:21:18;11.57;;;4.70;;
83634;SDS011;73596;49.482;11.238;2024-03-06T04:23:44;11.13;;;4.65;;
83634;SDS011;73596;49.482;11.238;2024-03-06T04:26:09;12.38;;;5.50;;
83634;SDS011;73596;49.482;11.238;2024-03-06T04:28:35;12.65;;;4.80;;
83634;SDS011;73596;49.482;11.238;2024-03-06T04:31:00;11.90;;;5.10;;
83634;SDS011;73596;49.482;11.238;2024-03-06T04:33:25;14.90;;;5.83;;
83634;SDS011;73596;49.482;11.238;2024-03-06T04:35:51;12.30;;;4.77;;
83634;SDS011;73596;49.482;11.238;2024-03-06T04:38:17;11.90;;;5.53;;
83634;SDS011;73596;49.482;11.238;2024-03-06T04:40:42;12.68;;;5.35;;
83634;SDS011;73596;49.482;11.238;2024-03-06T04:43:08;12.90;;;6.50;;
83634;SDS011;73596;49.482;11.238;2024-03-06T04:45:33;12.93;;;5.93;;
83634;SDS011;73596;49.482;11.238;2024-03-06T04:47:58;11.85;;;5.68;;
83634;SDS011;73596;49.482;11.238;2024-03-06T04:50:24;12.13;;;5.15;;
83634;SDS011;73596;49.482;11.238;2024-03-06T04:52:49;14.18;;;6.55;;
83634;SDS011;73596;49.482;11.238;2024-03-06T04:55:15;12.25;;;5.28;;
83634;SDS011;73596;49.482;11.238;2024-03-06T04:57:45;10.25;;;4.60;;
83634;SDS011;73596;49.482;11.238;2024-03-06T05:00:11;15.63;;;6.90;;
83634;SDS011;73596;49.482;11.238;2024-03-06T05:02:37;13.85;;;5.15;;
83634;SDS011;73596;49.482;11.238;2024-03-06T05:05:03;17.55;;;7.15;;
83634;SDS011;73596;49.482;11.238;2024-03-06T05:07:29;19.52;;;8.10;;
83634;SDS011;73596;49.482;11.238;2024-03-06T05:09:55;23.15;;;9.43;;
83634;SDS011;73596;49.482;11.238;2024-03-06T05:12:21;23.40;;;9.95;;
83634;SDS011;73596;49.482;11.238;2024-03-06T05:14:46;19.20;;;8.27;;
83634;SDS011;73596;49.482;11.238;2024-03-06T05:17:11;16.07;;;7.77;;
83634;SDS011;73596;49.482;11.238;2024-03-06T05:19:36;16.70;;;7.97;;
83634;SDS011;73596;49.482;11.238;2024-03-06T05:22:02;12.35;;;6.35;;
83634;SDS011;73596;49.482;11.238;2024-03-06T05:24:28;13.55;;;5.35;;
83634;SDS011;73596;49.482;11.238;2024-03-06T05:26:53;10.07;;;5.85;;
83634;SDS011;73596;49.482;11.238;2024-03-06T05:29:19;17.95;;;8.52;;
83634;SDS011;73596;49.482;11.238;2024-03-06T05:31:44;15.73;;;7.17;;
83634;SDS011;73596;49.482;11.238;2024-03-06T05:34:10;15.73;;;6.60;;
83634;SDS011;73596;49.482;11.238;2024-03-06T05:36:35;14.73;;;6.72;;
83634;SDS011;73596;49.482;11.238;2024-03-06T05:39:00;10.40;;;5.43;;
83634;SDS011;73596;49.482;11.238;2024-03-06T05:41:26;10.80;;;5.20;;
83634;SDS011;73596;49.482;11.238;2024-03-06T05:43:51;13.13;;;5.40;;
83634;SDS011;73596;49.482;11.238;2024-03-06T05:46:16;10.90;;;4.37;;
83634;SDS011;73596;49.482;11.238;2024-03-06T05:48:42;12.52;;;4.63;;
83634;SDS011;73596;49.482;11.238;2024-03-06T05:51:07;20.23;;;8.95;;
83634;SDS011;73596;49.482;11.238;2024-03-06T05:53:36;16.92;;;6.63;;
83634;SDS011;73596;49.482;11.238;2024-03-06T05:56:04;14.45;;;6.00;;
83634;SDS011;73596;49.482;11.238;2024-03-06T05:58:32;13.95;;;5.90;;
83634;SDS011;73596;49.482;11.238;2024-03-06T06:00:57;14.60;;;6.10;;
83634;SDS011;73596;49.482;11.238;2024-03-06T06:03:23;14.77;;;5.97;;
83634;SDS011;73596;49.482;11.238;2024-03-06T06:05:48;13.23;;;4.97;;
83634;SDS011;73596;49.482;11.238;2024-03-06T06:08:14;8.50;;;3.92;;
83634;SDS011;73596;49.482;11.238;2024-03-06T06:10:39;10.47;;;4.60;;
83634;SDS011;73596;49.482;11.238;2024-03-06T06:13:05;7.63;;;3.77;;
83634;SDS011;73596;49.482;11.238;2024-03-06T06:15:30;9.77;;;3.80;;
83634;SDS011;73596;49.482;11.238;2024-03-06T06:17:56;8.70;;;4.10;;
83634;SDS011;73596;49.482;11.238;2024-03-06T06:20:21;8.90;;;4.10;;
83634;SDS011;73596;49.482;11.238;2024-03-06T06:22:46;11.57;;;4.80;;
83634;SDS011;73596;49.482;11.238;2024-03-06T06:25:12;13.48;;;5.45;;
83634;SDS011;73596;49.482;11.238;2024-03-06T06:27:37;13.65;;;5.38;;
83634;SDS011;73596;49.482;11.238;2024-03-06T06:30:03;28.10;;;11.48;;
83634;SDS011;73596;49.482;11.238;2024-03-06T06:32:29;27.05;;;10.52;;
83634;SDS011;73596;49.482;11.238;2024-03-06T06:34:54;23.53;;;11.63;;
83634;SDS011;73596;49.482;11.238;2024-03-06T06:37:19;30.20;;;11.40;;
83634;SDS011;73596;49.482;11.238;2024-03-06T06:39:45;22.97;;;10.30;;
83634;SDS011;73596;49.482;11.238;2024-03-06T06:42:10;25.17;;;10.88;;
83634;SDS011;73596;49.482;11.238;2024-03-06T06:44:36;27.70;;;12.23;;
83634;SDS011;73596;49.482;11.238;2024-03-06T06:47:02;27.60;;;12.02;;
83634;SDS011;73596;49.482;11.238;2024-03-06T06:49:27;23.80;;;12.57;;
83634;SDS011;73596;49.482;11.238;2024-03-06T06:51:52;25.38;;;10.93;;
83634;SDS011;73596;49.482;11.238;2024-03-06T06:54:17;26.63;;;12.80;;
83634;SDS011;73596;49.482;11.238;2024-03-06T06:56:43;33.00;;;11.93;;
83634;SDS011;73596;49.482;11.238;2024-03-06T06:59:08;21.13;;;11.30;;
83634;SDS011;73596;49.482;11.238;2024-03-06T07:01:33;19.67;;;8.13;;
83634;SDS011;73596;49.482;11.238;2024-03-06T07:03:59;14.47;;;7.00;;
83634;SDS011;73596;49.482;11.238;2024-03-06T07:06:24;19.27;;;7.57;;
83634;SDS011;73596;49.482;11.238;2024-03-06T07:08:50;16.17;;;6.85;;
83634;SDS011;73596;49.482;11.238;2024-03-06T07:11:19;16.60;;;7.47;;
83634;SDS011;73596;49.482;11.238;2024-03-06T07:13:44;21.67;;;8.57;;
83634;SDS011;73596;49.482;11.238;2024-03-06T07:16:09;14.43;;;6.15;;
83634;SDS011;73596;49.482;11.238;2024-03-06T07:18:35;15.57;;;6.80;;
83634;SDS011;73596;49.482;11.238;2024-03-06T07:21:00;18.08;;;8.38;;
83634;SDS011;73596;49.482;11.238;2024-03-06T07:23:26;19.05;;;7.57;;
83634;SDS011;73596;49.482;11.238;2024-03-06T07:25:51;13.77;;;6.43;;
83634;SDS011;73596;49.482;11.238;2024-03-06T07:28:16;17.17;;;7.93;;
83634;SDS011;73596;49.482;11.238;2024-03-06T07:30:41;22.83;;;8.87;;
83634;SDS011;73596;49.482;11.238;2024-03-06T07:33:07;14.73;;;6.45;;
83634;SDS011;73596;49.482;11.238;2024-03-06T07:35:33;14.63;;;6.00;;
83634;SDS011;73596;49.482;11.238;2024-03-06T07:38:01;13.77;;;6.97;;
83634;SDS011;73596;49.482;11.238;2024-03-06T07:40:26;23.50;;;8.77;;
83634;SDS011;73596;49.482;11.238;2024-03-06T07:42:52;11.70;;;6.30;;
83634;SDS011;73596;49.482;11.238;2024-03-06T07:45:17;13.60;;;7.00;;
83634;SDS011;73596;49.482;11.238;2024-03-06T07:47:42;16.07;;;6.93;;
83634;SDS011;73596;49.482;11.238;2024-03-06T07:50:08;15.73;;;7.07;;
83634;SDS011;73596;49.482;11.238;2024-03-06T07:52:36;18.23;;;8.05;;
83634;SDS011;73596;49.482;11.238;2024-03-06T07:55:01;22.83;;;9.37;;
83634;SDS011;73596;49.482;11.238;2024-03-06T07:57:26;17.27;;;7.82;;
83634;SDS011;73596;49.482;11.238;2024-03-06T07:59:52;12.97;;;6.10;;
83634;SDS011;73596;49.482;11.238;2024-03-06T08:02:19;13.80;;;6.03;;
83634;SDS011;73596;49.482;11.238;2024-03-06T08:04:45;14.98;;;6.82;;
83634;SDS011;73596;49.482;11.238;2024-03-06T08:07:12;14.70;;;6.88;;
83634;SDS011;73596;49.482;11.238;2024-03-06T08:09:38;23.20;;;9.60;;
83634;SDS011;73596;49.482;11.238;2024-03-06T08:12:03;14.17;;;6.50;;
83634;SDS011;73596;49.482;11.238;2024-03-06T08:14:29;21.10;;;8.55;;
83634;SDS011;73596;49.482;11.238;2024-03-06T08:16:54;15.63;;;7.07;;
83634;SDS011;73596;49.482;11.238;2024-03-06T08:19:20;18.58;;;7.00;;
83634;SDS011;73596;49.482;11.238;2024-03-06T08:21:45;13.43;;;5.65;;
83634;SDS011;73596;49.482;11.238;2024-03-06T08:24:11;17.45;;;8.02;;
83634;SDS011;73596;49.482;11.238;2024-03-06T08:26:36;17.48;;;6.90;;
83634;SDS011;73596;49.482;11.238;2024-03-06T08:29:02;23.38;;;9.88;;
83634;SDS011;73596;49.482;11.238;2024-03-06T08:31:28;21.53;;;8.77;;
83634;SDS011;73596;49.482;11.238;2024-03-06T08:33:54;20.30;;;8.38;;
83634;SDS011;73596;49.482;11.238;2024-03-06T08:36:19;18.17;;;7.95;;
83634;SDS011;73596;49.482;11.238;2024-03-06T08:38:45;20.20;;;8.38;;
83634;SDS011;73596;49.482;11.238;2024-03-06T08:41:11;18.00;;;5.80;;
83634;SDS011;73596;49.482;11.238;2024-03-06T08:43:37;13.97;;;6.23;;
83634;SDS011;73596;49.482;11.238;2024-03-06T08:46:02;14.13;;;5.93;;
83634;SDS011;73596;49.482;11.238;2024-03-06T08:48:28;16.30;;;7.07;;
83634;SDS011;73596;49.482;11.238;2024-03-06T08:50:53;19.20;;;8.77;;
83634;SDS011;73596;49.482;11.238;2024-03-06T08:53:19;16.48;;;7.10;;
83634;SDS011;73596;49.482;11.238;2024-03-06T08:55:45;21.98;;;8.88;;
83634;SDS011;73596;49.482;11.238;2024-03-06T08:58:10;14.02;;;6.97;;
83634;SDS011;73596;49.482;11.238;2024-03-06T09:00:35;14.60;;;6.10;;
83634;SDS011;73596;49.482;11.238;2024-03-06T09:03:02;21.25;;;8.77;;
83634;SDS011;73596;49.482;11.238;2024-03-06T09:05:27;14.13;;;6.90;;
83634;SDS011;73596;49.482;11.238;2024-03-06T09:07:53;19.83;;;7.80;;
83634;SDS011;73596;49.482;11.238;2024-03-06T09:10:18;17.95;;;7.05;;
83634;SDS011;73596;49.482;11.238;2024-03-06T09:12:46;21.80;;;8.57;;
83634;SDS011;73596;49.482;11.238;2024-03-06T09:15:11;20.70;;;8.20;;
83634;SDS011;73596;49.482;11.238;2024-03-06T09:17:37;16.13;;;7.75;;
83634;SDS011;73596;49.482;11.238;2024-03-06T09:20:03;19.52;;;9.48;;
83634;SDS011;73596;49.482;11.238;2024-03-06T09:22:39;20.45;;;7.60;;
83634;SDS011;73596;49.482;11.238;2024-03-06T09:25:05;23.50;;;9.52;;
83634;SDS011;73596;49.482;11.238;2024-03-06T09:27:31;17.58;;;7.40;;
83634;SDS011;73596;49.482;11.238;2024-03-06T09:29:57;27.23;;;9.90;;
83634;SDS011;73596;49.482;11.238;2024-03-06T09:32:23;17.85;;;7.78;;
83634;SDS011;73596;49.482;11.238;2024-03-06T09:34:48;19.35;;;7.50;;
83634;SDS011;73596;49.482;11.238;2024-03-06T09:37:14;21.38;;;8.13;;
83634;SDS011;73596;49.482;11.238;2024-03-06T09:39:39;16.87;;;7.00;;
83634;SDS011;73596;49.482;11.238;2024-03-06T09:42:05;13.93;;;6.57;;
83634;SDS011;73596;49.482;11.238;2024-03-06T09:44:30;20.52;;;8.40;;
83634;SDS011;73596;49.482;11.238;2024-03-06T09:46:56;21.10;;;9.13;;
83634;SDS011;73596;49.482;11.238;2024-03-06T09:49:28;19.65;;;8.38;;
83634;SDS011;73596;49.482;11.238;2024-03-06T09:51:55;16.73;;;8.05;;
83634;SDS011;73596;49.482;11.238;2024-03-06T09:54:23;16.58;;;5.88;;
83634;SDS011;73596;49.482;11.238;2024-03-06T09:56:51;20.75;;;9.10;;
83634;SDS011;73596;49.482;11.238;2024-03-06T09:59:16;22.73;;;9.07;;
83634;SDS011;73596;49.482;11.238;2024-03-06T10:01:54;22.20;;;7.23;;
83634;SDS011;73596;49.482;11.238;2024-03-06T10:04:22;24.20;;;9.25;;
83634;SDS011;73596;49.482;11.238;2024-03-06T10:06:50;20.35;;;8.75;;
83634;SDS011;73596;49.482;11.238;2024-03-06T10:09:19;14.30;;;5.97;;
83634;SDS011;73596;49.482;11.238;2024-03-06T10:11:45;19.83;;;8.93;;
83634;SDS011;73596;49.482;11.238;2024-03-06T10:14:10;17.17;;;7.35;;
83634;SDS011;73596;49.482;11.238;2024-03-06T10:16:37;19.08;;;8.13;;
83634;SDS011;73596;49.482;11.238;2024-03-06T10:19:23;19.80;;;7.72;;
83634;SDS011;73596;49.482;11.238;2024-03-06T10:21:49;24.17;;;9.98;;
83634;SDS011;73596;49.482;11.238;2024-03-06T10:24:22;18.23;;;7.75;;
83634;SDS011;73596;49.482;11.238;2024-03-06T10:26:49;25.27;;;9.52;;
83634;SDS011;73596;49.482;11.238;2024-03-06T10:29:16;18.50;;;8.00;;
83634;SDS011;73596;49.482;11.238;2024-03-06T10:31:56;19.35;;;8.57;;
83634;SDS011;73596;49.482;11.238;2024-03-06T10:34:28;15.27;;;6.65;;
83634;SDS011;73596;49.482;11.238;2024-03-06T10:39:20;15.90;;;6.60;;
83634;SDS011;73596;49.482;11.238;2024-03-06T10:41:46;16.90;;;7.63;;
83634;SDS011;73596;49.482;11.238;2024-03-06T10:44:17;17.48;;;7.65;;
83634;SDS011;73596;49.482;11.238;2024-03-06T10:46:47;21.95;;;8.10;;
83634;SDS011;73596;49.482;11.238;2024-03-06T10:49:20;16.35;;;7.43;;
83634;SDS011;73596;49.482;11.238;2024-03-06T10:51:47;15.77;;;7.10;;
83634;SDS011;73596;49.482;11.238;2024-03-06T10:54:13;17.75;;;8.25;;
83634;SDS011;73596;49.482;11.238;2024-03-06T10:56:48;15.80;;;7.82;;
83634;SDS011;73596;49.482;11.238;2024-03-06T10:59:13;15.77;;;7.47;;
83634;SDS011;73596;49.482;11.238;2024-03-06T11:01:40;12.73;;;5.93;;
83634;SDS011;73596;49.482;11.238;2024-03-06T11:04:08;17.58;;;7.15;;
83634;SDS011;73596;49.482;11.238;2024-03-06T11:06:36;20.67;;;8.48;;
83634;SDS011;73596;49.482;11.238;2024-03-06T11:09:03;21.02;;;7.88;;
83634;SDS011;73596;49.482;11.238;2024-03-06T11:11:29;20.00;;;8.80;;
83634;SDS011;73596;49.482;11.238;2024-03-06T11:14:01;16.13;;;6.90;;
83634;SDS011;73596;49.482;11.238;2024-03-06T11:16:29;15.75;;;7.03;;
83634;SDS011;73596;49.482;11.238;2024-03-06T11:19:07;18.60;;;7.85;;
83634;SDS011;73596;49.482;11.238;2024-03-06T11:21:34;19.02;;;8.32;;
83634;SDS011;73596;49.482;11.238;2024-03-06T11:24:11;14.20;;;6.70;;
83634;SDS011;73596;49.482;11.238;2024-03-06T11:26:53;17.08;;;7.50;;
83634;SDS011;73596;49.482;11.238;2024-03-06T11:29:22;16.92;;;8.30;;
83634;SDS011;73596;49.482;11.238;2024-03-06T11:32:00;15.73;;;7.80;;
83634;SDS011;73596;49.482;11.238;2024-03-06T11:34:28;16.85;;;7.85;;
83634;SDS011;73596;49.482;11.238;2024-03-06T11:36:58;19.98;;;7.88;;
83634;SDS011;73596;49.482;11.238;2024-03-06T11:39:24;17.45;;;6.97;;
83634;SDS011;73596;49.482;11.238;2024-03-06T11:41:55;15.93;;;7.35;;
83634;SDS011;73596;49.482;11.238;2024-03-06T11:44:21;16.02;;;7.63;;
83634;SDS011;73596;49.482;11.238;2024-03-06T11:49:21;14.05;;;6.55;;
83634;SDS011;73596;49.482;11.238;2024-03-06T11:51:49;19.17;;;7.95;;
83634;SDS011;73596;49.482;11.238;2024-03-06T11:54:16;16.45;;;8.02;;
83634;SDS011;73596;49.482;11.238;2024-03-06T11:56:44;15.98;;;7.55;;
83634;SDS011;73596;49.482;11.238;2024-03-06T11:59:12;18.58;;;8.20;;
83634;SDS011;73596;49.482;11.238;2024-03-06T12:01:37;14.70;;;7.13;;
83634;SDS011;73596;49.482;11.238;2024-03-06T12:04:03;15.88;;;7.57;;
83634;SDS011;73596;49.482;11.238;2024-03-06T12:06:33;19.10;;;7.13;;
83634;SDS011;73596;49.482;11.238;2024-03-06T12:09:02;14.48;;;6.60;;
83634;SDS011;73596;49.482;11.238;2024-03-06T12:11:28;11.57;;;5.32;;
83634;SDS011;73596;49.482;11.238;2024-03-06T12:13:55;14.90;;;6.20;;
83634;SDS011;73596;49.482;11.238;2024-03-06T12:16:22;12.13;;;5.53;;
83634;SDS011;73596;49.482;11.238;2024-03-06T12:18:58;14.25;;;7.03;;
83634;SDS011;73596;49.482;11.238;2024-03-06T12:21:27;10.98;;;5.50;;
83634;SDS011;73596;49.482;11.238;2024-03-06T12:24:02;10.85;;;4.10;;
83634;SDS011;73596;49.482;11.238;2024-03-06T12:26:28;15.10;;;6.72;;
83634;SDS011;73596;49.482;11.238;2024-03-06T12:28:53;11.57;;;5.73;;
83634;SDS011;73596;49.482;11.238;2024-03-06T12:31:29;15.20;;;7.28;;
83634;SDS011;73596;49.482;11.238;2024-03-06T12:33:58;10.52;;;5.18;;
83634;SDS011;73596;49.482;11.238;2024-03-06T12:36:26;14.05;;;6.25;;
83634;SDS011;73596;49.482;11.238;2024-03-06T12:38:54;13.57;;;6.90;;
83634;SDS011;73596;49.482;11.238;2024-03-06T12:41:20;15.77;;;6.30;;
83634;SDS011;73596;49.482;11.238;2024-03-06T12:43:45;10.60;;;5.07;;
83634;SDS011;73596;49.482;11.238;2024-03-06T12:46:11;19.70;;;6.20;;
83634;SDS011;73596;49.482;11.238;2024-03-06T12:48:37;14.23;;;6.47;;
83634;SDS011;73596;49.482;11.238;2024-03-06T12:51:02;12.57;;;5.87;;
83634;SDS011;73596;49.482;11.238;2024-03-06T12:53:30;11.90;;;5.40;;
83634;SDS011;73596;49.482;11.238;2024-03-06T12:55:55;18.33;;;7.80;;
83634;SDS011;73596;49.482;11.238;2024-03-06T12:58:21;11.73;;;5.90;;
83634;SDS011;73596;49.482;11.238;2024-03-06T13:00:46;13.43;;;6.40;;
83634;SDS011;73596;49.482;11.238;2024-03-06T13:03:12;16.05;;;7.07;;
83634;SDS011;73596;49.482;11.238;2024-03-06T13:05:37;18.23;;;6.73;;
83634;SDS011;73596;49.482;11.238;2024-03-06T13:08:02;12.43;;;5.43;;
83634;SDS011;73596;49.482;11.238;2024-03-06T13:10:28;14.23;;;5.55;;
83634;SDS011;73596;49.482;11.238;2024-03-06T13:12:54;10.38;;;4.43;;
83634;SDS011;73596;49.482;11.238;2024-03-06T13:15:19;12.45;;;5.57;;
83634;SDS011;73596;49.482;11.238;2024-03-06T13:17:45;14.93;;;6.95;;
83634;SDS011;73596;49.482;11.238;2024-03-06T13:20:10;16.60;;;7.13;;
83634;SDS011;73596;49.482;11.238;2024-03-06T13:22:38;11.52;;;5.80;;
83634;SDS011;73596;49.482;11.238;2024-03-06T13:25:04;12.10;;;5.50;;
83634;SDS011;73596;49.482;11.238;2024-03-06T13:27:30;13.70;;;6.50;;
83634;SDS011;73596;49.482;11.238;2024-03-06T13:29:55;16.30;;;7.63;;
83634;SDS011;73596;49.482;11.238;2024-03-06T13:32:21;17.70;;;7.55;;
83634;SDS011;73596;49.482;11.238;2024-03-06T13:34:46;14.33;;;6.47;;
83634;SDS011;73596;49.482;11.238;2024-03-06T13:37:11;16.07;;;6.23;;
83634;SDS011;73596;49.482;11.238;2024-03-06T13:39:37;14.52;;;7.72;;
83634;SDS011;73596;49.482;11.238;2024-03-06T13:42:03;13.98;;;6.53;;
83634;SDS011;73596;49.482;11.238;2024-03-06T13:44:31;12.05;;;5.57;;
83634;SDS011;73596;49.482;11.238;2024-03-06T13:46:56;12.88;;;5.90;;
83634;SDS011;73596;49.482;11.238;2024-03-06T13:49:40;16.37;;;7.27;;
83634;SDS011;73596;49.482;11.238;2024-03-06T13:52:06;17.83;;;7.05;;
83634;SDS011;73596;49.482;11.238;2024-03-06T13:54:38;15.90;;;7.32;;
83634;SDS011;73596;49.482;11.238;2024-03-06T13:57:05;16.90;;;7.55;;
83634;SDS011;73596;49.482;11.238;2024-03-06T13:59:34;14.27;;;6.38;;
83634;SDS011;73596;49.482;11.238;2024-03-06T14:02:00;16.20;;;7.55;;
83634;SDS011;73596;49.482;11.238;2024-03-06T14:04:30;15.82;;;7.50;;
83634;SDS011;73596;49.482;11.238;2024-03-06T14:06:55;14.68;;;6.85;;
83634;SDS011;73596;49.482;11.238;2024-03-06T14:09:22;16.15;;;7.28;;
83634;SDS011;73596;49.482;11.238;2024-03-06T14:11:48;14.13;;;7.05;;
83634;SDS011;73596;49.482;11.238;2024-03-06T14:14:14;18.17;;;7.80;;
83634;SDS011;73596;49.482;11.238;2024-03-06T14:16:40;14.40;;;6.90;;
83634;SDS011;73596;49.482;11.238;2024-03-06T14:19:05;10.77;;;5.25;;
83634;SDS011;73596;49.482;11.238;2024-03-06T14:21:31;15.27;;;7.10;;